Time;durP1;ratioP1;P1;durP2;ratioP2;P2;SDS_P1;SDS_P2;PMS_P1;PMS_P2;Temp;Humidity;BMP_temperature;BMP_pressure;BME280_temperature;BME280_humidity;BME280_pressure;Samples;Min_cycle;Max_cycle;Signal;HPM_P1;HPM_P2
2022/09/26 00:00:23;;;;;;;2.63;2.50;;;;;;;;;;6316654;28;20387;-83
2022/09/26 00:03:23;;;;;;;6.28;3.15;;;;;;;;;;6310366;28;20510;-85
2022/09/26 00:06:23;;;;;;;6.27;5.70;;;;;;;;;;6317223;28;20020;-83
2022/09/26 00:09:24;;;;;;;1.75;1.65;;;;;;;;;;6315581;28;20020;-84
2022/09/26 00:12:25;;;;;;;5.63;5.20;;;;;;;;;;6314076;28;20023;-84
2022/09/26 00:15:25;;;;;;;2.27;2.17;;;;;;;;;;6305708;28;20024;-84
2022/09/26 00:18:25;;;;;;;4.37;4.03;;;;;;;;;;6323920;28;20023;-84
2022/09/26 00:21:27;;;;;;;1.60;1.55;;;;;;;;;;6317245;28;20500;-84
2022/09/26 00:24:27;;;;;;;4.70;3.90;;;;;;;;;;6305609;28;20039;-83
2022/09/26 00:27:27;;;;;;;3.53;3.20;;;;;;;;;;6315967;28;20480;-83
2022/09/26 00:30:27;;;;;;;0.80;0.80;;;;;;;;;;6312715;28;20047;-83
2022/09/26 00:33:27;;;;;;;1.80;1.70;;;;;;;;;;6314830;28;20023;-83
2022/09/26 00:36:28;;;;;;;1.42;1.35;;;;;;;;;;6310423;28;20013;-83
2022/09/26 00:39:28;;;;;;;1.70;1.63;;;;;;;;;;6311824;28;20504;-83
2022/09/26 00:42:29;;;;;;;2.63;2.53;;;;;;;;;;6306918;28;20013;-83
2022/09/26 00:45:30;;;;;;;3.00;2.37;;;;;;;;;;6315235;28;20020;-83
2022/09/26 00:48:30;;;;;;;4.13;1.97;;;;;;;;;;6322478;28;20048;-84
2022/09/26 00:51:32;;;;;;;3.08;2.88;;;;;;;;;;6344421;27;20035;-83
2022/09/26 00:54:33;;;;;;;1.25;1.25;;;;;;;;;;6343086;27;20027;-84
2022/09/26 00:57:36;;;;;;;2.92;2.80;;;;;;;;;;6349482;27;20325;-84
2022/09/26 01:00:39;;;;;;;8.80;3.45;;;;;;;;;;6345169;27;20356;-83
2022/09/26 01:03:41;;;;;;;1.40;1.30;;;;;;;;;;6338735;27;20011;-83
2022/09/26 01:06:41;;;;;;;;;;;;;;;;;;6344433;27;20433;-83
2022/09/26 01:09:41;;;;;;;1.85;1.48;;;;;;;;;;6345800;27;20244;-83
2022/09/26 01:12:42;;;;;;;3.35;2.50;;;;;;;;;;6351372;27;20033;-83
2022/09/26 01:15:42;;;;;;;3.85;3.40;;;;;;;;;;6363207;27;20012;-83
2022/09/26 01:18:43;;;;;;;0.97;0.97;;;;;;;;;;6358205;27;20012;-83
2022/09/26 01:22:03;;;;;;;2.93;2.23;;;;;;;;;;6338875;27;20018;-83
2022/09/26 01:25:22;;;;;;;2.88;2.67;;;;;;;;;;6366730;27;20056;-83
2022/09/26 01:28:32;;;;;;;3.47;3.10;;;;;;;;;;6351930;27;20037;-83
2022/09/26 01:31:32;;;;;;;6.25;5.53;;;;;;;;;;6340409;27;20015;-83
2022/09/26 01:34:41;;;;;;;3.63;3.20;;;;;;;;;;6344535;27;20011;-83
2022/09/26 01:37:53;;;;;;;2.63;2.40;;;;;;;;;;6365120;27;20090;-83
2022/09/26 01:40:59;;;;;;;4.03;3.80;;;;;;;;;;6343391;27;20015;-83
2022/09/26 01:44:18;;;;;;;3.97;3.67;;;;;;;;;;6357922;27;20011;-83
2022/09/26 01:47:25;;;;;;;3.33;3.03;;;;;;;;;;6342671;28;20047;-83
2022/09/26 01:50:34;;;;;;;1.20;1.20;;;;;;;;;;6330695;28;20135;-83
2022/09/26 01:53:39;;;;;;;5.63;3.85;;;;;;;;;;6357829;27;20425;-83
2022/09/26 01:56:40;;;;;;;2.40;2.25;;;;;;;;;;6346073;27;20093;-83
2022/09/26 01:59:44;;;;;;;3.28;2.97;;;;;;;;;;6360985;27;20030;-83
2022/09/26 02:02:46;;;;;;;6.82;6.07;;;;;;;;;;6346219;27;20020;-83
2022/09/26 02:05:50;;;;;;;4.97;4.20;;;;;;;;;;6359589;27;20015;-83
2022/09/26 02:09:04;;;;;;;5.07;3.58;;;;;;;;;;6341011;28;20504;-83
2022/09/26 02:12:05;;;;;;;4.47;4.15;;;;;;;;;;6339704;28;20054;-83
2022/09/26 02:15:08;;;;;;;26.95;6.03;;;;;;;;;;6348319;27;20046;-83
2022/09/26 02:18:13;;;;;;;7.18;5.47;;;;;;;;;;6343044;27;20017;-83
2022/09/26 02:21:15;;;;;;;1.73;1.63;;;;;;;;;;6339487;28;20016;-82
2022/09/26 02:24:16;;;;;;;1.25;1.25;;;;;;;;;;6347885;28;20387;-82
2022/09/26 02:27:16;;;;;;;2.80;2.70;;;;;;;;;;6342313;28;20031;-83
2022/09/26 02:30:16;;;;;;;3.50;3.10;;;;;;;;;;6342399;28;20414;-83
2022/09/26 02:33:16;;;;;;;7.23;3.07;;;;;;;;;;6365922;28;20040;-83
2022/09/26 02:36:18;;;;;;;1.73;1.63;;;;;;;;;;6345051;28;20509;-83
2022/09/26 02:39:18;;;;;;;1.93;1.83;;;;;;;;;;6347521;28;20035;-83
2022/09/26 02:42:20;;;;;;;3.83;3.63;;;;;;;;;;6352734;28;20064;-83
2022/09/26 02:45:28;;;;;;;4.32;4.00;;;;;;;;;;6344152;28;20022;-83
2022/09/26 02:48:34;;;;;;;7.10;2.88;;;;;;;;;;6342366;28;20019;-83
2022/09/26 02:51:34;;;;;;;3.15;2.85;;;;;;;;;;6351822;28;20166;-83
2022/09/26 02:54:45;;;;;;;5.00;4.10;;;;;;;;;;6335319;28;20047;-83
2022/09/26 02:57:51;;;;;;;2.15;1.88;;;;;;;;;;6332414;28;20019;-82
2022/09/26 03:00:59;;;;;;;9.63;4.72;;;;;;;;;;6370486;27;20027;-82
2022/09/26 03:04:18;;;;;;;3.92;3.47;;;;;;;;;;6359878;27;20012;-82
2022/09/26 03:07:22;;;;;;;2.58;2.45;;;;;;;;;;6349900;27;20413;-83
2022/09/26 03:10:24;;;;;;;5.63;4.25;;;;;;;;;;6351545;27;20087;-82
2022/09/26 03:13:25;;;;;;;9.07;3.85;;;;;;;;;;6362255;27;20513;-82
2022/09/26 03:16:28;;;;;;;3.90;3.30;;;;;;;;;;6347142;27;20011;-83
2022/09/26 03:19:34;;;;;;;6.32;4.45;;;;;;;;;;6343156;27;20475;-83
2022/09/26 03:22:34;;;;;;;3.53;3.22;;;;;;;;;;6347896;27;19992;-83
2022/09/26 03:25:35;;;;;;;5.57;4.45;;;;;;;;;;6342266;27;20381;-83
2022/09/26 03:28:35;;;;;;;6.63;5.93;;;;;;;;;;6340691;27;20043;-83
2022/09/26 03:31:36;;;;;;;4.10;3.50;;;;;;;;;;6345464;27;20019;-83
2022/09/26 03:34:38;;;;;;;4.97;4.60;;;;;;;;;;6346806;27;20023;-83
2022/09/26 03:37:39;;;;;;;5.15;4.72;;;;;;;;;;6343983;27;20016;-82
2022/09/26 03:40:40;;;;;;;6.30;4.88;;;;;;;;;;6339078;27;20018;-83
2022/09/26 03:43:42;;;;;;;;;;;;;;;;;;6371094;27;20015;-83
2022/09/26 03:46:42;;;;;;;4.82;2.53;;;;;;;;;;6342732;27;19908;-82
2022/09/26 03:49:43;;;;;;;1.80;1.80;;;;;;;;;;6361190;27;20026;-83
2022/09/26 03:52:43;;;;;;;5.00;4.47;;;;;;;;;;6370631;27;20136;-83
2022/09/26 03:55:43;;;;;;;4.27;3.87;;;;;;;;;;6362292;27;20023;-82
2022/09/26 03:58:44;;;;;;;14.57;2.27;;;;;;;;;;6341669;27;20023;-82
2022/09/26 04:01:44;;;;;;;7.10;3.63;;;;;;;;;;6349630;27;20030;-82
2022/09/26 04:04:44;;;;;;;5.20;4.82;;;;;;;;;;6354697;27;20475;-83
2022/09/26 04:07:45;;;;;;;2.75;2.55;;;;;;;;;;6346465;27;20023;-82
2022/09/26 04:10:46;;;;;;;2.30;2.20;;;;;;;;;;6335541;28;20016;-83
2022/09/26 04:13:46;;;;;;;2.42;2.33;;;;;;;;;;6343691;27;20039;-83
2022/09/26 04:16:47;;;;;;;2.10;1.97;;;;;;;;;;6365843;27;20502;-82
2022/09/26 04:19:47;;;;;;;5.30;4.93;;;;;;;;;;6338554;27;20026;-82
2022/09/26 04:22:47;;;;;;;2.22;2.08;;;;;;;;;;6349874;27;20034;-82
2022/09/26 04:25:47;;;;;;;4.32;3.97;;;;;;;;;;6350118;27;20080;-82
2022/09/26 04:28:49;;;;;;;4.45;3.92;;;;;;;;;;6348569;27;20110;-83
2022/09/26 04:31:50;;;;;;;9.50;4.53;;;;;;;;;;6351937;27;20018;-82
2022/09/26 04:34:50;;;;;;;1.67;1.63;;;;;;;;;;6368690;27;20383;-83
2022/09/26 04:37:50;;;;;;;8.00;2.78;;;;;;;;;;6346390;27;20050;-82
2022/09/26 04:40:50;;;;;;;2.40;2.20;;;;;;;;;;6363882;27;20019;-82
2022/09/26 04:43:52;;;;;;;2.80;2.60;;;;;;;;;;6338374;27;20027;-82
2022/09/26 04:46:52;;;;;;;;;;;;;;;;;;6369083;27;20038;-82
2022/09/26 04:49:53;;;;;;;1.92;1.48;;;;;;;;;;6345684;27;19907;-81
2022/09/26 04:52:53;;;;;;;12.85;5.65;;;;;;;;;;6347610;27;20038;-81
2022/09/26 04:55:53;;;;;;;3.37;3.07;;;;;;;;;;6351117;27;20140;-81
2022/09/26 04:58:55;;;;;;;3.23;2.93;;;;;;;;;;6342994;27;20502;-81
2022/09/26 05:01:56;;;;;;;3.55;3.33;;;;;;;;;;6332024;27;20015;-81
2022/09/26 05:04:58;;;;;;;8.75;5.57;;;;;;;;;;6363609;27;20103;-81
2022/09/26 05:07:58;;;;;;;;;;;;;;;;;;6357602;27;20378;-82
2022/09/26 05:11:01;;;;;;;2.60;2.38;;;;;;;;;;6341087;27;20425;-82
2022/09/26 05:14:03;;;;;;;5.30;3.75;;;;;;;;;;6362872;27;20015;-81
2022/09/26 05:17:03;;;;;;;2.38;2.17;;;;;;;;;;6346622;27;20114;-80
2022/09/26 05:20:07;;;;;;;1.50;1.50;;;;;;;;;;6347719;27;20008;-81
2022/09/26 05:23:08;;;;;;;1.98;1.80;;;;;;;;;;6350788;27;20015;-81
2022/09/26 05:26:20;;;;;;;4.83;4.40;;;;;;;;;;6339602;27;20026;-81
2022/09/26 05:29:20;;;;;;;;;;;;;;;;;;6368100;27;20147;-81
2022/09/26 05:32:21;;;;;;;2.47;2.38;;;;;;;;;;6331409;27;19903;-81
2022/09/26 05:35:21;;;;;;;2.30;2.10;;;;;;;;;;6363306;27;20119;-82
2022/09/26 05:38:21;;;;;;;3.08;2.85;;;;;;;;;;6346015;27;20015;-81
2022/09/26 05:41:21;;;;;;;6.00;2.23;;;;;;;;;;6348771;27;20023;-82
2022/09/26 05:44:22;;;;;;;0.87;0.87;;;;;;;;;;6342022;27;20022;-81
2022/09/26 05:47:25;;;;;;;5.53;3.10;;;;;;;;;;6349659;27;20020;-81
2022/09/26 05:50:26;;;;;;;3.65;3.35;;;;;;;;;;6347016;27;20078;-81
2022/09/26 05:53:26;;;;;;;10.17;3.57;;;;;;;;;;6344884;27;20015;-82
2022/09/26 05:56:26;;;;;;;2.42;2.13;;;;;;;;;;6350337;27;20067;-79
2022/09/26 05:59:26;;;;;;;2.67;2.47;;;;;;;;;;6349850;27;20054;-81
2022/09/26 06:02:26;;;;;;;6.87;5.07;;;;;;;;;;6348190;27;20023;-81
2022/09/26 06:05:27;;;;;;;2.23;2.03;;;;;;;;;;6365600;27;20038;-81
2022/09/26 06:08:27;;;;;;;4.13;1.43;;;;;;;;;;6346942;27;20023;-81
2022/09/26 06:11:29;;;;;;;1.27;1.27;;;;;;;;;;6369332;27;20102;-81
2022/09/26 06:14:30;;;;;;;9.60;5.13;;;;;;;;;;6367864;27;20372;-81
2022/09/26 06:17:31;;;;;;;2.65;2.45;;;;;;;;;;6367348;27;20488;-81
2022/09/26 06:20:32;;;;;;;8.67;4.03;;;;;;;;;;6369782;27;20030;-81
2022/09/26 06:23:35;;;;;;;8.30;5.07;;;;;;;;;;6346278;27;20019;-82
2022/09/26 06:26:36;;;;;;;2.50;2.40;;;;;;;;;;6345050;28;20021;-82
2022/09/26 06:29:37;;;;;;;6.20;5.63;;;;;;;;;;6348590;28;20446;-82
2022/09/26 06:32:38;;;;;;;10.50;6.93;;;;;;;;;;6345380;27;20538;-82
2022/09/26 06:35:38;;;;;;;8.47;4.67;;;;;;;;;;6346407;27;20076;-82
2022/09/26 06:38:38;;;;;;;3.40;3.20;;;;;;;;;;6347718;27;20273;-82
2022/09/26 06:41:39;;;;;;;4.57;4.18;;;;;;;;;;6368202;27;20094;-81
2022/09/26 06:44:39;;;;;;;3.47;3.27;;;;;;;;;;6353021;27;20475;-82
2022/09/26 06:47:39;;;;;;;10.30;5.87;;;;;;;;;;6336704;27;20026;-82
2022/09/26 06:50:39;;;;;;;2.67;2.57;;;;;;;;;;6342451;27;20139;-80
2022/09/26 06:53:41;;;;;;;4.13;3.17;;;;;;;;;;6365013;27;20046;-80
2022/09/26 06:56:41;;;;;;;3.60;3.35;;;;;;;;;;6334209;27;20008;-80
2022/09/26 06:59:41;;;;;;;3.03;2.83;;;;;;;;;;6344336;27;20367;-80
2022/09/26 07:02:49;;;;;;;6.00;3.22;;;;;;;;;;6343124;27;20037;-80
2022/09/26 07:05:50;;;;;;;3.08;2.88;;;;;;;;;;6352596;27;20058;-80
2022/09/26 07:08:50;;;;;;;4.95;4.55;;;;;;;;;;6349959;27;20037;-80
2022/09/26 07:11:51;;;;;;;5.87;5.47;;;;;;;;;;6353733;27;20474;-80
2022/09/26 07:14:51;;;;;;;3.57;2.83;;;;;;;;;;6352806;27;20019;-79
2022/09/26 07:17:52;;;;;;;3.10;2.97;;;;;;;;;;6350337;27;20011;-79
2022/09/26 07:20:52;;;;;;;4.18;3.58;;;;;;;;;;6364257;27;20023;-79
2022/09/26 07:23:55;;;;;;;7.93;6.27;;;;;;;;;;6349300;27;20031;-79
2022/09/26 07:26:55;;;;;;;3.47;3.22;;;;;;;;;;6369643;27;20015;-79
2022/09/26 07:29:57;;;;;;;6.73;5.30;;;;;;;;;;6368389;27;20072;-79
2022/09/26 07:32:59;;;;;;;3.20;3.00;;;;;;;;;;6368273;27;20023;-79
2022/09/26 07:36:00;;;;;;;11.23;6.38;;;;;;;;;;6368710;27;20024;-79
2022/09/26 07:39:01;;;;;;;10.57;4.53;;;;;;;;;;6369967;27;20034;-79
2022/09/26 07:42:02;;;;;;;13.23;7.40;;;;;;;;;;6345228;27;20012;-79
2022/09/26 07:45:02;;;;;;;5.32;4.85;;;;;;;;;;6341817;27;20483;-79
2022/09/26 07:51:22;;;;;;;4.35;3.95;;;;;;;;;;6368875;27;20403;-80
2022/09/26 07:54:22;;;;;;;3.53;3.03;;;;;;;;;;6343634;27;20022;-79
2022/09/26 07:57:23;;;;;;;12.77;5.73;;;;;;;;;;6367071;27;20007;-79
2022/09/26 08:00:25;;;;;;;5.57;3.70;;;;;;;;;;6365487;27;20018;-79
2022/09/26 08:03:28;;;;;;;;;;;;;;;;;;6350965;27;20052;-79
2022/09/26 08:06:30;;;;;;;4.25;3.95;;;;;;;;;;6368591;27;19914;-78
2022/09/26 08:09:30;;;;;;;4.03;3.67;;;;;;;;;;6369020;27;20087;-78
2022/09/26 08:12:35;;;;;;;4.33;3.40;;;;;;;;;;6365324;27;20022;-78
2022/09/26 08:15:35;;;;;;;9.98;4.78;;;;;;;;;;6347294;27;20106;-79
2022/09/26 08:18:35;;;;;;;3.70;3.43;;;;;;;;;;6363485;27;20027;-78
2022/09/26 08:21:35;;;;;;;4.97;4.03;;;;;;;;;;6349313;27;20266;-79
2022/09/26 08:24:36;;;;;;;4.25;2.28;;;;;;;;;;6369426;27;20479;-79
2022/09/26 08:27:36;;;;;;;11.63;4.50;;;;;;;;;;6348884;27;20069;-76
2022/09/26 08:30:36;;;;;;;3.97;3.45;;;;;;;;;;6367698;27;20071;-77
2022/09/26 08:33:37;;;;;;;3.30;2.73;;;;;;;;;;6363202;27;20098;-77
2022/09/26 08:36:37;;;;;;;2.67;2.47;;;;;;;;;;6366958;27;20087;-77
2022/09/26 08:39:38;;;;;;;2.03;1.77;;;;;;;;;;6366317;27;20253;-77
2022/09/26 08:42:41;;;;;;;3.23;2.50;;;;;;;;;;6367943;27;20066;-77
2022/09/26 08:49:25;;;;;;;2.13;1.58;;;;;;;;;;6367569;27;20121;-77
2022/09/26 08:52:27;;;;;;;3.90;2.70;;;;;;;;;;6368074;27;20035;-77
2022/09/26 08:55:29;;;;;;;;;;;;;;;;;;6338510;27;20046;-77
2022/09/26 08:58:36;;;;;;;1.60;1.55;;;;;;;;;;6357124;27;19998;-77
2022/09/26 09:01:38;;;;;;;4.60;3.35;;;;;;;;;;6351945;27;20432;-77
2022/09/26 09:04:42;;;;;;;1.67;1.58;;;;;;;;;;6339899;27;20382;-77
2022/09/26 09:07:46;;;;;;;1.35;1.35;;;;;;;;;;6368561;27;20438;-77
2022/09/26 09:10:46;;;;;;;1.23;1.23;;;;;;;;;;6349586;27;20027;-77
2022/09/26 09:13:46;;;;;;;2.37;1.33;;;;;;;;;;6367533;27;20095;-76
2022/09/26 09:17:02;;;;;;;2.13;1.93;;;;;;;;;;6365529;27;20378;-76
2022/09/26 09:20:19;;;;;;;3.88;3.53;;;;;;;;;;6365469;27;20106;-77
2022/09/26 09:23:44;;;;;;;1.48;1.17;;;;;;;;;;6365409;27;20019;-77
2022/09/26 09:26:45;;;;;;;10.40;4.53;;;;;;;;;;6363044;27;20123;-77
2022/09/26 09:29:50;;;;;;;2.03;1.92;;;;;;;;;;6367770;27;20021;-77
2022/09/26 09:32:57;;;;;;;4.22;3.75;;;;;;;;;;6364900;27;20024;-76
2022/09/26 09:36:04;;;;;;;8.10;3.45;;;;;;;;;;6361234;27;20027;-77
2022/09/26 09:39:06;;;;;;;5.13;3.17;;;;;;;;;;6368093;27;20445;-76
2022/09/26 09:42:28;;;;;;;4.63;3.25;;;;;;;;;;6350472;27;20022;-76
2022/09/26 09:45:28;;;;;;;;;;;;;;;;;;6364750;27;20543;-77
2022/09/26 09:48:28;;;;;;;3.17;2.87;;;;;;;;;;6368755;27;19907;-76
2022/09/26 09:51:30;;;;;;;3.23;3.00;;;;;;;;;;6361030;27;20738;-76
2022/09/26 09:54:30;;;;;;;;;;;;;;;;;;6357861;27;20105;-76
2022/09/26 09:57:40;;;;;;;2.20;2.10;;;;;;;;;;6336359;27;19914;-76
2022/09/26 10:01:05;;;;;;;5.03;4.63;;;;;;;;;;6355494;27;20110;-77
2022/09/26 10:04:33;;;;;;;4.65;2.72;;;;;;;;;;6342444;27;20370;-77
2022/09/26 10:07:33;;;;;;;3.30;2.25;;;;;;;;;;6361177;27;20499;-76
2022/09/26 10:10:54;;;;;;;29.13;4.30;;;;;;;;;;6356489;27;20071;-76
2022/09/26 10:13:58;;;;;;;5.93;4.15;;;;;;;;;;6352961;27;20019;-76
2022/09/26 10:17:08;;;;;;;2.90;2.63;;;;;;;;;;6362482;27;20023;-76
2022/09/26 10:20:28;;;;;;;2.53;2.22;;;;;;;;;;6367935;27;20026;-77
2022/09/26 10:23:28;;;;;;;3.90;3.60;;;;;;;;;;6338997;27;20030;-77
2022/09/26 10:26:33;;;;;;;6.65;4.03;;;;;;;;;;6361820;27;20072;-77
2022/09/26 10:29:35;;;;;;;4.90;3.13;;;;;;;;;;6344955;28;20106;-77
2022/09/26 10:32:41;;;;;;;4.45;4.03;;;;;;;;;;6366989;28;20467;-77
2022/09/26 10:35:42;;;;;;;3.95;3.65;;;;;;;;;;6356914;28;20019;-77
2022/09/26 10:40:43;;;;;;;6.43;3.95;;;;;;;;;;6344900;28;20584;-77
2022/09/26 10:42:14;;;;;;;4.40;3.05;;;;;;;;;;6358899;28;20031;-77
2022/09/26 10:45:16;;;;;;;1.90;1.77;;;;;;;;;;6346136;28;20076;-77
2022/09/26 10:48:20;;;;;;;2.28;2.17;;;;;;;;;;6354331;28;20035;-77
2022/09/26 10:51:36;;;;;;;5.85;2.90;;;;;;;;;;6335430;28;20047;-78
2022/09/26 10:54:40;;;;;;;2.45;2.17;;;;;;;;;;6361824;28;20020;-78
2022/09/26 10:57:45;;;;;;;1.55;1.50;;;;;;;;;;6363609;28;20424;-77
2022/09/26 11:00:50;;;;;;;0.70;0.70;;;;;;;;;;6359359;28;20019;-77
2022/09/26 11:03:51;;;;;;;7.45;4.65;;;;;;;;;;6338946;28;20067;-77
2022/09/26 11:06:52;;;;;;;1.98;1.77;;;;;;;;;;6329604;28;20031;-77
2022/09/26 11:09:56;;;;;;;3.00;2.30;;;;;;;;;;6360295;28;20024;-76
2022/09/26 11:12:59;;;;;;;2.33;2.17;;;;;;;;;;6361898;28;20035;-77
2022/09/26 11:16:02;;;;;;;1.70;1.60;;;;;;;;;;6358068;28;20394;-77
2022/09/26 11:19:07;;;;;;;2.20;2.08;;;;;;;;;;6364184;27;20463;-77
2022/09/26 11:22:16;;;;;;;4.47;3.65;;;;;;;;;;6363869;27;20028;-76
2022/09/26 11:25:23;;;;;;;6.60;4.38;;;;;;;;;;6364116;27;20489;-77
2022/09/26 11:28:26;;;;;;;1.60;1.50;;;;;;;;;;6368178;27;20102;-77
2022/09/26 11:31:29;;;;;;;4.10;3.80;;;;;;;;;;6361808;27;20016;-76
2022/09/26 11:34:30;;;;;;;2.53;2.33;;;;;;;;;;6348916;27;20023;-76
2022/09/26 11:37:34;;;;;;;5.00;2.90;;;;;;;;;;6362196;27;20030;-76
2022/09/26 11:40:40;;;;;;;2.30;2.17;;;;;;;;;;6364066;27;20022;-77
2022/09/26 11:43:57;;;;;;;1.42;1.33;;;;;;;;;;6351673;27;20463;-77
2022/09/26 11:47:00;;;;;;;1.67;1.60;;;;;;;;;;6365237;27;20031;-77
2022/09/26 11:50:10;;;;;;;2.13;1.92;;;;;;;;;;6339492;27;20102;-77
2022/09/26 11:53:23;;;;;;;4.03;2.72;;;;;;;;;;6368660;27;20543;-77
2022/09/26 11:56:47;;;;;;;3.40;2.50;;;;;;;;;;6363883;27;20012;-77
2022/09/26 12:00:06;;;;;;;2.25;2.05;;;;;;;;;;6366360;27;20040;-76
2022/09/26 12:03:07;;;;;;;3.42;1.70;;;;;;;;;;6368710;27;20030;-77
2022/09/26 12:06:32;;;;;;;4.15;2.38;;;;;;;;;;6363475;27;20019;-76
2022/09/26 12:09:38;;;;;;;5.90;4.50;;;;;;;;;;6352032;27;20057;-76
2022/09/26 12:12:46;;;;;;;6.95;3.42;;;;;;;;;;6360351;27;20102;-76
2022/09/26 12:15:54;;;;;;;3.13;2.85;;;;;;;;;;6363872;27;20016;-76
2022/09/26 12:18:55;;;;;;;2.63;2.40;;;;;;;;;;6366179;27;20019;-76
2022/09/26 12:22:28;;;;;;;5.83;3.60;;;;;;;;;;6345262;27;20034;-77
2022/09/26 12:25:38;;;;;;;3.15;2.10;;;;;;;;;;6362758;27;20087;-76
2022/09/26 12:28:41;;;;;;;3.00;2.17;;;;;;;;;;6363979;27;20097;-76
2022/09/26 12:31:53;;;;;;;1.33;1.23;;;;;;;;;;6364975;27;20054;-76
2022/09/26 12:35:01;;;;;;;0.57;0.57;;;;;;;;;;6359858;27;20058;-76
2022/09/26 12:38:15;;;;;;;6.30;2.10;;;;;;;;;;6352131;27;20012;-77
2022/09/26 12:41:19;;;;;;;2.67;2.50;;;;;;;;;;6338112;27;20129;-77
2022/09/26 12:44:38;;;;;;;0.95;0.88;;;;;;;;;;6354975;27;20011;-75
2022/09/26 12:47:38;;;;;;;1.77;1.67;;;;;;;;;;6355559;27;20440;-76
2022/09/26 13:47:20;;;;;;;2.75;1.48;;;;;;;;;;6336617;28;20028;-76
2022/09/26 13:50:39;;;;;;;1.23;0.82;;;;;;;;;;6323460;28;20040;-76
2022/09/26 13:53:44;;;;;;;2.50;1.75;;;;;;;;;;6340698;28;20080;-76
2022/09/26 13:56:49;;;;;;;1.38;1.27;;;;;;;;;;6347885;27;20468;-75
2022/09/26 13:59:50;;;;;;;1.73;0.98;;;;;;;;;;6365012;27;20102;-75
2022/09/26 14:03:08;;;;;;;0.43;0.43;;;;;;;;;;6361324;27;20019;-76
2022/09/26 14:06:16;;;;;;;2.72;2.50;;;;;;;;;;6365288;27;20527;-75
2022/09/26 14:09:26;;;;;;;2.55;2.35;;;;;;;;;;6364077;27;20093;-75
2022/09/26 14:12:49;;;;;;;1.50;0.95;;;;;;;;;;6342462;27;20073;-75
2022/09/26 14:15:57;;;;;;;2.00;1.23;;;;;;;;;;6358541;27;20038;-74
2022/09/26 14:19:11;;;;;;;1.08;0.82;;;;;;;;;;6365279;27;20408;-75
2022/09/26 14:22:17;;;;;;;1.25;1.17;;;;;;;;;;6343761;27;20416;-75
2022/09/26 14:25:36;;;;;;;0.88;0.85;;;;;;;;;;6348239;27;20146;-75
2022/09/26 14:28:38;;;;;;;1.15;1.15;;;;;;;;;;6365836;27;20176;-74
2022/09/26 14:31:39;;;;;;;2.08;1.52;;;;;;;;;;6366296;28;20037;-74
2022/09/26 14:34:51;;;;;;;0.82;0.82;;;;;;;;;;6362711;28;20110;-74
2022/09/26 14:37:58;;;;;;;3.88;2.63;;;;;;;;;;6335114;28;20106;-74
2022/09/26 14:40:58;;;;;;;3.63;3.05;;;;;;;;;;6346667;28;20023;-74
2022/09/26 14:44:15;;;;;;;3.93;1.30;;;;;;;;;;6362061;28;20135;-73
2022/09/26 14:47:15;;;;;;;0.47;0.47;;;;;;;;;;6362324;28;20019;-74
2022/09/26 14:50:21;;;;;;;4.20;2.53;;;;;;;;;;6339941;28;20501;-74
2022/09/26 14:53:41;;;;;;;2.90;2.40;;;;;;;;;;6336791;27;20023;-74
2022/09/26 14:56:46;;;;;;;0.30;0.30;;;;;;;;;;6370046;27;20403;-75
2022/09/26 14:59:47;;;;;;;1.73;1.63;;;;;;;;;;6372188;27;20018;-74
2022/09/26 15:02:49;;;;;;;2.53;1.80;;;;;;;;;;6351380;27;20050;-74
2022/09/26 15:05:49;;;;;;;;;;;;;;;;;;6369434;27;20111;-74
2022/09/26 15:08:49;;;;;;;2.17;2.00;;;;;;;;;;6369974;27;19911;-74
2022/09/26 15:12:02;;;;;;;0.67;0.67;;;;;;;;;;6365868;27;20079;-74
2022/09/26 15:15:08;;;;;;;3.58;2.67;;;;;;;;;;6370921;27;20024;-75
2022/09/26 15:18:29;;;;;;;0.30;0.30;;;;;;;;;;6370882;27;20023;-74
2022/09/26 15:21:32;;;;;;;1.40;1.30;;;;;;;;;;6370641;27;20033;-74
2022/09/26 15:24:34;;;;;;;1.48;1.38;;;;;;;;;;6371526;27;20027;-74
2022/09/26 15:27:35;;;;;;;2.40;2.20;;;;;;;;;;6369379;27;20019;-75
2022/09/26 15:30:39;;;;;;;0.67;0.67;;;;;;;;;;6347000;27;20028;-75
2022/09/26 15:33:39;;;;;;;1.77;1.33;;;;;;;;;;6362977;27;20024;-74
2022/09/26 15:36:41;;;;;;;3.17;0.83;;;;;;;;;;6344389;27;20064;-74
2022/09/26 15:39:41;;;;;;;2.63;1.98;;;;;;;;;;6366621;27;20019;-75
2022/09/26 15:43:01;;;;;;;0.33;0.33;;;;;;;;;;6360530;27;20392;-76
2022/09/26 15:46:02;;;;;;;3.33;0.95;;;;;;;;;;6359377;27;20440;-76
2022/09/26 15:49:10;;;;;;;3.07;2.67;;;;;;;;;;6343117;27;20034;-76
2022/09/26 15:52:10;;;;;;;1.55;1.40;;;;;;;;;;6350835;27;20039;-76
2022/09/26 15:55:32;;;;;;;1.30;1.20;;;;;;;;;;6360830;27;20390;-76
2022/09/26 15:58:42;;;;;;;0.70;0.70;;;;;;;;;;6362585;27;20451;-75
2022/09/26 16:01:43;;;;;;;0.93;0.93;;;;;;;;;;6349093;27;20011;-75
2022/09/26 16:04:48;;;;;;;1.23;1.17;;;;;;;;;;6361739;27;20023;-75
2022/09/26 16:07:49;;;;;;;3.92;3.60;;;;;;;;;;6361871;27;20026;-76
2022/09/26 16:10:57;;;;;;;0.47;0.47;;;;;;;;;;6355246;27;20038;-75
2022/09/26 16:13:59;;;;;;;1.20;1.10;;;;;;;;;;6364826;27;20027;-74
2022/09/26 16:16:59;;;;;;;;;;;;;;;;;;6347742;27;20141;-74
2022/09/26 16:20:20;;;;;;;1.00;1.00;;;;;;;;;;6345238;27;20012;-74
2022/09/26 16:23:25;;;;;;;2.13;1.27;;;;;;;;;;6361854;27;20027;-74
2022/09/26 16:26:30;;;;;;;1.23;1.13;;;;;;;;;;6345404;27;20099;-74
2022/09/26 16:29:34;;;;;;;4.50;2.28;;;;;;;;;;6360525;27;20489;-75
2022/09/26 16:32:35;;;;;;;1.73;1.55;;;;;;;;;;6353724;27;20314;-75
2022/09/26 16:35:36;;;;;;;3.20;2.30;;;;;;;;;;6346178;27;20413;-76
2022/09/26 16:38:36;;;;;;;1.27;1.27;;;;;;;;;;6351545;27;20091;-76
2022/09/26 16:41:38;;;;;;;2.53;2.33;;;;;;;;;;6335253;27;20060;-76
2022/09/26 16:44:40;;;;;;;1.98;1.88;;;;;;;;;;6361626;27;20076;-76
2022/09/26 16:47:42;;;;;;;;;;;;;;;;;;6357906;27;20102;-76
2022/09/26 16:50:43;;;;;;;0.55;0.55;;;;;;;;;;6365071;27;19911;-75
2022/09/26 16:53:44;;;;;;;0.97;0.97;;;;;;;;;;6340167;27;20170;-76
2022/09/26 16:56:46;;;;;;;2.47;1.50;;;;;;;;;;6362870;27;20039;-76
2022/09/26 16:59:47;;;;;;;0.73;0.73;;;;;;;;;;6355206;27;20142;-77
2022/09/26 17:02:48;;;;;;;8.47;2.43;;;;;;;;;;6345613;27;20026;-77
2022/09/26 17:05:49;;;;;;;2.17;2.00;;;;;;;;;;6350326;27;20019;-76
2022/09/26 17:08:50;;;;;;;4.90;3.58;;;;;;;;;;6365697;27;20142;-76
2022/09/26 17:11:52;;;;;;;4.43;4.05;;;;;;;;;;6359021;27;20386;-75
2022/09/26 17:14:52;;;;;;;5.57;4.32;;;;;;;;;;6368875;27;20019;-76
2022/09/26 17:17:53;;;;;;;4.97;4.53;;;;;;;;;;6362414;27;20023;-76
2022/09/26 17:20:53;;;;;;;4.73;4.37;;;;;;;;;;6347421;27;20041;-75
2022/09/26 17:23:54;;;;;;;5.97;3.43;;;;;;;;;;6366355;27;20462;-76
2022/09/26 17:27:02;;;;;;;2.77;2.47;;;;;;;;;;6366234;27;20015;-76
2022/09/26 17:30:03;;;;;;;6.47;3.70;;;;;;;;;;6344432;27;20486;-75
2022/09/26 17:33:03;;;;;;;5.90;4.90;;;;;;;;;;6347106;27;20026;-76
2022/09/26 17:36:09;;;;;;;7.30;4.83;;;;;;;;;;6344843;27;20124;-75
2022/09/26 17:39:11;;;;;;;8.15;3.38;;;;;;;;;;6360996;27;20015;-76
2022/09/26 17:42:12;;;;;;;3.78;3.33;;;;;;;;;;6365605;27;20049;-76
2022/09/26 17:45:12;;;;;;;6.97;3.93;;;;;;;;;;6344488;27;20025;-75
2022/09/26 17:48:18;;;;;;;1.27;1.23;;;;;;;;;;6346919;27;20019;-76
2022/09/26 17:51:20;;;;;;;1.50;1.25;;;;;;;;;;6365512;27;20027;-75
2022/09/26 17:54:25;;;;;;;4.03;3.45;;;;;;;;;;6356509;27;20053;-75
2022/09/26 17:57:28;;;;;;;1.27;1.27;;;;;;;;;;6364092;27;20360;-75
2022/09/26 18:00:32;;;;;;;3.20;3.00;;;;;;;;;;6339250;27;20043;-75
2022/09/26 18:03:35;;;;;;;1.77;1.67;;;;;;;;;;6360288;27;20012;-75
2022/09/26 18:06:36;;;;;;;3.90;3.30;;;;;;;;;;6359940;27;20073;-76
2022/09/26 18:09:37;;;;;;;0.75;0.75;;;;;;;;;;6356717;27;20035;-75
2022/09/26 18:12:38;;;;;;;0.50;0.50;;;;;;;;;;6342495;27;20091;-75
2022/09/26 18:15:38;;;;;;;3.60;3.30;;;;;;;;;;6360948;27;20390;-75
2022/09/26 18:18:38;;;;;;;0.47;0.47;;;;;;;;;;6357774;27;20011;-75
2022/09/26 18:21:39;;;;;;;1.73;1.60;;;;;;;;;;6365901;27;20023;-76
2022/09/26 18:24:39;;;;;;;1.40;1.33;;;;;;;;;;6347346;27;20034;-76
2022/09/26 18:27:39;;;;;;;3.90;2.57;;;;;;;;;;6360835;27;20524;-75
2022/09/26 18:30:41;;;;;;;6.23;3.83;;;;;;;;;;6350633;28;20065;-76
2022/09/26 18:33:41;;;;;;;;;;;;;;;;;;6344526;28;20386;-77
2022/09/26 18:36:41;;;;;;;16.25;12.07;;;;;;;;;;6354869;28;20459;-75
2022/09/26 18:39:42;;;;;;;19.23;12.43;;;;;;;;;;6357357;28;20019;-75
2022/09/26 18:42:46;;;;;;;17.70;13.30;;;;;;;;;;6330717;28;20019;-76
2022/09/26 18:45:46;;;;;;;22.38;12.77;;;;;;;;;;6337290;28;20027;-76
2022/09/26 18:48:47;;;;;;;16.50;11.93;;;;;;;;;;6348650;28;20034;-75
2022/09/26 18:51:47;;;;;;;16.00;14.07;;;;;;;;;;6364899;28;20025;-75
2022/09/26 18:58:22;;;;;;;6.53;6.00;;;;;;;;;;6367215;28;20085;-76
2022/09/26 18:58:26;;;;;;;11.57;7.50;;;;;;;;;;6363911;28;20419;-75
2022/09/26 19:01:32;;;;;;;7.60;4.93;;;;;;;;;;6364479;28;20023;-76
2022/09/26 19:04:33;;;;;;;5.53;4.22;;;;;;;;;;6358514;28;20019;-75
2022/09/26 19:07:33;;;;;;;6.03;4.93;;;;;;;;;;6338728;28;20051;-76
2022/09/26 19:10:33;;;;;;;5.53;5.13;;;;;;;;;;6360268;28;20047;-76
2022/09/26 19:13:33;;;;;;;12.50;8.13;;;;;;;;;;6357388;28;20022;-75
2022/09/26 19:16:34;;;;;;;13.83;4.87;;;;;;;;;;6348059;28;20012;-76
2022/09/26 19:19:34;;;;;;;5.70;5.20;;;;;;;;;;6348441;28;20016;-75
2022/09/26 19:22:34;;;;;;;4.33;4.03;;;;;;;;;;6354078;28;20016;-75
2022/09/26 19:25:34;;;;;;;4.63;4.37;;;;;;;;;;6359568;28;20070;-76
2022/09/26 19:28:35;;;;;;;7.17;6.47;;;;;;;;;;6351873;28;20019;-75